Time;durP1;ratioP1;P1;durP2;ratioP2;P2;SDS_P1;SDS_P2;PMS_P1;PMS_P2;Temp;Humidity;BMP_temperature;BMP_pressure;BME280_temperature;BME280_humidity;BME280_pressure;Samples;Min_cycle;Max_cycle;Signal;HPM_P1;HPM_P2
2023/07/16 00:00:59;;;;;;;1.73;1.07;;;;;;;22.62;nan;99443.88;4975420;28;20491;-77
2023/07/16 00:03:25;;;;;;;1.30;1.00;;;;;;;22.49;nan;99448.97;4975719;28;20519;-77
2023/07/16 00:05:51;;;;;;;3.30;1.10;;;;;;;22.34;nan;99446.25;4973919;28;20448;-76
2023/07/16 00:08:16;;;;;;;2.30;1.10;;;;;;;22.20;nan;99463.06;4973811;28;20213;-77
2023/07/16 00:10:42;;;;;;;1.40;1.30;;;;;;;22.04;nan;99462.13;4974113;28;20797;-75
2023/07/16 00:13:07;;;;;;;1.50;1.30;;;;;;;21.88;nan;99460.34;4974202;28;20270;-77
2023/07/16 00:15:33;;;;;;;2.10;1.20;;;;;;;21.80;nan;99462.22;4972685;28;20841;-76
2023/07/16 00:17:58;;;;;;;1.60;1.27;;;;;;;21.68;nan;99464.44;4974971;28;20840;-75
2023/07/16 00:20:24;;;;;;;2.23;1.10;;;;;;;21.54;nan;99468.66;4973718;28;20314;-76
2023/07/16 00:22:50;;;;;;;1.40;0.97;;;;;;;21.41;nan;99469.22;4972876;28;20210;-76
2023/07/16 00:25:15;;;;;;;1.50;1.40;;;;;;;21.33;nan;99460.31;4971931;28;20238;-76
2023/07/16 00:27:41;;;;;;;1.97;1.67;;;;;;;21.26;nan;99448.69;4973481;28;20456;-76
2023/07/16 00:30:08;;;;;;;5.53;1.77;;;;;;;21.18;nan;99436.16;4972407;28;20204;-77
2023/07/16 00:32:34;;;;;;;1.90;1.57;;;;;;;21.12;nan;99447.53;4971911;28;20986;-76
2023/07/16 00:35:01;;;;;;;5.73;1.70;;;;;;;21.05;nan;99457.22;4973931;28;20473;-76
2023/07/16 00:37:27;;;;;;;1.53;1.43;;;;;;;21.02;nan;99465.56;4972241;28;20206;-76
2023/07/16 00:39:52;;;;;;;4.17;1.83;;;;;;;20.97;nan;99479.41;4972083;28;20515;-76
2023/07/16 00:42:18;;;;;;;2.90;1.43;;;;;;;20.91;nan;99480.91;4952321;28;20260;-76
2023/07/16 00:44:43;;;;;;;4.60;1.43;;;;;;;20.87;nan;99476.91;4974532;28;20257;-76
2023/07/16 00:47:09;;;;;;;2.60;1.27;;;;;;;20.83;nan;99478.25;4971580;28;20237;-76
2023/07/16 00:49:35;;;;;;;1.53;1.27;;;;;;;20.78;nan;99488.59;4972334;28;20267;-75
2023/07/16 00:52:01;;;;;;;2.80;1.13;;;;;;;20.73;nan;99493.59;4953366;28;20646;-76
2023/07/16 00:54:29;;;;;;;1.70;1.40;;;;;;;20.70;nan;99496.59;4973384;28;20886;-76
2023/07/16 00:56:55;;;;;;;1.40;1.20;;;;;;;20.68;nan;99485.25;4976060;28;20456;-76
2023/07/16 00:59:20;;;;;;;3.70;1.43;;;;;;;20.66;nan;99496.09;4978298;28;20470;-76
2023/07/16 01:01:46;;;;;;;2.40;1.20;;;;;;;20.62;nan;99493.91;4976225;28;20231;-76
2023/07/16 01:04:13;;;;;;;1.20;0.90;;;;;;;20.59;nan;99488.91;4972573;28;20209;-75
2023/07/16 01:06:43;;;;;;;3.77;1.50;;;;;;;20.57;nan;99475.72;4976790;28;20457;-76
2023/07/16 01:09:16;;;;;;;1.97;1.20;;;;;;;20.56;nan;99484.75;4976443;28;20229;-76
2023/07/16 01:11:43;;;;;;;1.83;1.07;;;;;;;20.51;nan;99485.19;4977325;28;21257;-76
2023/07/16 01:14:10;;;;;;;2.60;1.70;;;;;;;20.51;nan;99484.38;4977034;28;20537;-76
2023/07/16 01:16:36;;;;;;;1.20;1.00;;;;;;;20.48;nan;99506.88;4975026;28;20479;-76
2023/07/16 01:19:02;;;;;;;1.73;1.40;;;;;;;20.44;nan;99512.69;4975569;28;20477;-76
2023/07/16 01:21:34;;;;;;;2.50;1.67;;;;;;;20.41;nan;99518.34;4973102;28;20256;-76
2023/07/16 01:24:22;;;;;;;1.80;1.27;;;;;;;20.39;nan;99515.00;4975631;28;20996;-70
2023/07/16 01:26:58;;;;;;;2.40;1.73;;;;;;;20.40;nan;99544.22;4962989;28;20512;-76
2023/07/16 01:29:49;;;;;;;1.47;1.17;;;;;;;20.32;nan;99522.84;4975111;28;20973;-76
2023/07/16 01:32:16;;;;;;;1.30;1.10;;;;;;;20.27;nan;99523.31;4972390;28;20895;-76
2023/07/16 01:34:43;;;;;;;3.87;1.70;;;;;;;20.25;nan;99529.81;4974877;28;20485;-76
2023/07/16 01:37:09;;;;;;;2.17;1.20;;;;;;;20.22;nan;99549.63;4975131;28;20678;-75
2023/07/16 01:39:35;;;;;;;1.97;1.30;;;;;;;20.18;nan;99560.81;4975827;28;20484;-76
2023/07/16 01:42:01;;;;;;;1.47;1.37;;;;;;;20.11;nan;99572.09;4972141;28;20746;-76
2023/07/16 01:44:27;;;;;;;1.40;1.27;;;;;;;20.09;nan;99582.09;4973157;28;20506;-76
2023/07/16 01:47:06;;;;;;;2.37;1.30;;;;;;;20.10;nan;99570.44;4977323;28;20632;-75
2023/07/16 01:49:32;;;;;;;1.67;1.40;;;;;;;20.16;nan;99554.78;4975095;28;20227;-76
2023/07/16 01:52:00;;;;;;;1.73;1.30;;;;;;;20.16;nan;99557.47;4976313;28;20467;-76
2023/07/16 01:54:26;;;;;;;2.83;1.33;;;;;;;20.17;nan;99564.44;4974938;28;20544;-76
2023/07/16 01:56:51;;;;;;;1.67;1.23;;;;;;;20.16;nan;99536.94;4964336;28;20480;-76
2023/07/16 01:59:16;;;;;;;1.70;1.30;;;;;;;20.15;nan;99519.28;4951813;28;20215;-76
2023/07/16 02:01:42;;;;;;;6.00;1.50;;;;;;;20.10;nan;99527.78;4977420;28;20232;-76
2023/07/16 02:04:07;;;;;;;2.33;1.27;;;;;;;20.04;nan;99552.41;4958133;28;20229;-75
2023/07/16 02:06:33;;;;;;;3.42;1.42;;;;;;;19.99;nan;99556.56;4963643;28;20428;-75
2023/07/16 02:08:59;;;;;;;1.50;1.30;;;;;;;19.98;nan;99560.19;4959005;28;20468;-77
2023/07/16 02:11:24;;;;;;;1.70;1.20;;;;;;;19.92;nan;99572.34;4969916;28;20368;-76
2023/07/16 02:13:50;;;;;;;3.43;1.40;;;;;;;19.89;nan;99554.00;4973135;28;20225;-76
2023/07/16 02:16:15;;;;;;;1.90;1.30;;;;;;;19.86;nan;99549.81;4965303;28;20235;-76
2023/07/16 02:18:40;;;;;;;2.20;1.30;;;;;;;19.84;nan;99553.63;4975730;28;20212;-75
2023/07/16 02:21:06;;;;;;;3.87;1.30;;;;;;;19.79;nan;99550.59;4958007;28;20452;-76
2023/07/16 02:23:31;;;;;;;3.37;1.40;;;;;;;19.76;nan;99548.25;4966544;28;20607;-76
2023/07/16 02:25:56;;;;;;;1.47;1.20;;;;;;;19.73;nan;99540.59;4963788;28;20336;-75
2023/07/16 02:28:22;;;;;;;1.63;1.30;;;;;;;19.73;nan;99541.41;4958960;28;20316;-75
2023/07/16 02:30:49;;;;;;;2.83;1.40;;;;;;;19.74;nan;99547.56;4955869;28;20474;-77
2023/07/16 02:33:14;;;;;;;3.13;1.40;;;;;;;19.75;nan;99530.63;4954242;28;20225;-75
2023/07/16 02:35:40;;;;;;;2.90;1.40;;;;;;;19.76;nan;99524.28;4957300;28;20820;-75
2023/07/16 02:38:05;;;;;;;2.40;1.30;;;;;;;19.78;nan;99548.94;4957034;28;20250;-76
2023/07/16 02:40:30;;;;;;;1.53;1.20;;;;;;;19.79;nan;99563.94;4947313;28;20541;-76
2023/07/16 02:42:56;;;;;;;4.27;1.37;;;;;;;19.77;nan;99565.94;4973997;28;20608;-76
2023/07/16 02:45:21;;;;;;;3.40;1.60;;;;;;;19.74;nan;99571.56;4968558;28;20333;-76
2023/07/16 02:47:47;;;;;;;2.70;1.20;;;;;;;19.72;nan;99576.25;4968487;28;20219;-74
2023/07/16 02:50:15;;;;;;;3.60;1.30;;;;;;;19.65;nan;99570.66;4966637;28;20282;-75
2023/07/16 02:52:40;;;;;;;2.83;1.60;;;;;;;19.59;nan;99548.13;4968711;28;20484;-76
2023/07/16 02:55:06;;;;;;;1.87;1.37;;;;;;;19.58;nan;99533.16;4968929;28;20744;-76
2023/07/16 02:57:31;;;;;;;2.00;1.30;;;;;;;19.59;nan;99544.63;4969924;28;20225;-75
2023/07/16 02:59:57;;;;;;;1.43;1.33;;;;;;;19.61;nan;99550.66;4967458;28;20208;-76
2023/07/16 03:02:22;;;;;;;5.40;1.70;;;;;;;19.62;nan;99555.81;4954073;28;20232;-76
2023/07/16 03:04:49;;;;;;;1.80;1.57;;;;;;;19.63;nan;99548.66;4957764;28;20216;-76
2023/07/16 03:07:14;;;;;;;2.80;1.57;;;;;;;19.61;nan;99538.16;4968473;28;20493;-76
2023/07/16 03:09:39;;;;;;;2.83;1.37;;;;;;;19.62;nan;99533.66;4954772;28;20232;-76
2023/07/16 03:12:05;;;;;;;2.40;1.30;;;;;;;19.64;nan;99545.00;4970633;28;20305;-76
2023/07/16 03:14:31;;;;;;;3.07;1.63;;;;;;;19.65;nan;99554.66;4973534;28;20246;-75
2023/07/16 03:16:56;;;;;;;2.23;1.50;;;;;;;19.66;nan;99551.88;4955445;28;20614;-75
2023/07/16 03:19:22;;;;;;;3.03;1.33;;;;;;;19.68;nan;99551.72;4968939;28;20691;-75
2023/07/16 03:21:49;;;;;;;2.27;1.77;;;;;;;19.67;nan;99548.22;4970626;28;20314;-75
2023/07/16 03:24:15;;;;;;;2.43;1.17;;;;;;;19.67;nan;99558.03;4962791;28;20247;-76
2023/07/16 03:26:40;;;;;;;2.33;1.20;;;;;;;19.66;nan;99562.53;4971038;28;20608;-75
2023/07/16 03:29:06;;;;;;;1.93;1.20;;;;;;;19.66;nan;99546.56;4956990;28;20773;-76
2023/07/16 03:31:31;;;;;;;3.00;2.47;;;;;;;19.65;nan;99539.50;4961442;28;20224;-76
2023/07/16 03:33:57;;;;;;;6.13;2.07;;;;;;;19.69;nan;99544.56;4967304;28;20514;-76
2023/07/16 03:36:24;;;;;;;5.60;1.30;;;;;;;19.69;nan;99560.56;4969375;28;20213;-76
2023/07/16 03:38:50;;;;;;;2.60;1.50;;;;;;;19.69;nan;99555.25;4967119;28;21781;-76
2023/07/16 03:41:16;;;;;;;2.80;1.33;;;;;;;19.66;nan;99570.53;4968025;28;20218;-75
2023/07/16 03:43:43;;;;;;;2.13;1.30;;;;;;;19.64;nan;99579.66;4956391;28;20506;-76
2023/07/16 03:46:15;;;;;;;2.57;1.47;;;;;;;19.61;nan;99579.97;4967964;28;20471;-76
2023/07/16 03:48:41;;;;;;;1.80;1.20;;;;;;;19.58;nan;99578.44;4968386;28;20478;-76
2023/07/16 03:51:07;;;;;;;2.70;1.50;;;;;;;19.56;nan;99574.25;4956920;28;20441;-76
2023/07/16 03:53:32;;;;;;;1.63;1.47;;;;;;;19.53;nan;99571.91;4970975;28;20870;-76
2023/07/16 03:55:58;;;;;;;2.43;1.10;;;;;;;19.51;nan;99574.72;4970986;28;20225;-75
2023/07/16 03:58:23;;;;;;;2.00;1.60;;;;;;;19.50;nan;99573.06;4961841;28;20212;-75
2023/07/16 04:00:48;;;;;;;1.87;1.50;;;;;;;19.51;nan;99573.91;4969337;28;20511;-76
2023/07/16 04:03:14;;;;;;;3.10;1.70;;;;;;;19.51;nan;99576.56;4954343;28;20233;-75
2023/07/16 04:05:39;;;;;;;2.70;1.50;;;;;;;19.50;nan;99585.56;4956966;28;20253;-75
2023/07/16 04:08:08;;;;;;;2.67;1.63;;;;;;;19.49;nan;99606.00;4956114;28;20305;-76
2023/07/16 04:10:33;;;;;;;2.20;1.50;;;;;;;19.47;nan;99616.00;4972063;28;20511;-75
2023/07/16 04:12:59;;;;;;;2.63;1.80;;;;;;;19.46;nan;99620.47;4971688;28;20522;-74
2023/07/16 04:15:24;;;;;;;2.37;1.93;;;;;;;19.49;nan;99618.50;4973026;28;20276;-76
2023/07/16 04:17:50;;;;;;;2.13;1.47;;;;;;;19.51;nan;99617.34;4962186;28;20564;-76
2023/07/16 04:20:15;;;;;;;1.73;1.43;;;;;;;19.54;nan;99617.03;4970868;28;20254;-75
2023/07/16 04:22:40;;;;;;;1.67;1.57;;;;;;;19.54;nan;99625.03;4970498;28;21152;-76
2023/07/16 04:25:06;;;;;;;2.33;1.83;;;;;;;19.52;nan;99632.34;4971516;28;20255;-76
2023/07/16 04:27:32;;;;;;;2.93;1.50;;;;;;;19.52;nan;99639.50;4971260;28;20828;-75
2023/07/16 04:29:57;;;;;;;2.40;1.80;;;;;;;19.55;nan;99636.53;4972310;28;20290;-75
2023/07/16 04:32:22;;;;;;;1.83;1.27;;;;;;;19.59;nan;99630.72;4974008;28;20718;-76
2023/07/16 04:34:48;;;;;;;4.20;1.50;;;;;;;19.66;nan;99626.50;4976781;28;20226;-75
2023/07/16 04:37:13;;;;;;;2.40;1.40;;;;;;;19.76;nan;99614.88;4977826;28;20313;-75
2023/07/16 04:39:39;;;;;;;2.17;1.20;;;;;;;19.83;nan;99624.78;4975639;28;20565;-75
2023/07/16 04:42:04;;;;;;;2.60;1.33;;;;;;;19.86;nan;99616.47;4975900;28;20224;-75
2023/07/16 04:44:30;;;;;;;1.93;1.13;;;;;;;19.88;nan;99618.97;4977088;28;20596;-76
2023/07/16 04:46:55;;;;;;;2.80;2.60;;;;;;;19.89;nan;99631.31;4975141;28;20221;-76
2023/07/16 04:49:20;;;;;;;1.80;1.30;;;;;;;19.93;nan;99627.34;4976719;28;20568;-75
2023/07/16 04:51:46;;;;;;;2.63;2.30;;;;;;;19.93;nan;99611.34;4975908;28;20227;-75
2023/07/16 04:54:11;;;;;;;1.23;1.13;;;;;;;19.95;nan;99627.16;4975558;28;20655;-76
2023/07/16 04:56:36;;;;;;;1.50;1.30;;;;;;;19.96;nan;99632.38;4974975;28;20567;-75
2023/07/16 04:59:02;;;;;;;1.93;1.10;;;;;;;19.96;nan;99624.38;4973878;28;20233;-76
2023/07/16 05:01:27;;;;;;;1.50;1.40;;;;;;;19.96;nan;99605.69;4974923;28;20262;-77
2023/07/16 05:03:53;;;;;;;1.57;1.27;;;;;;;20.00;nan;99596.38;4973640;28;20992;-76
2023/07/16 05:06:18;;;;;;;3.30;1.70;;;;;;;20.07;nan;99626.75;4973412;28;20851;-76
2023/07/16 05:08:44;;;;;;;2.00;1.37;;;;;;;20.08;nan;99640.91;4975608;28;20224;-77
2023/07/16 05:11:09;;;;;;;2.50;1.40;;;;;;;20.07;nan;99639.25;4974498;28;20284;-77
2023/07/16 05:13:34;;;;;;;1.67;1.57;;;;;;;20.06;nan;99627.75;4976869;28;20270;-77
2023/07/16 05:16:00;;;;;;;1.60;1.30;;;;;;;20.08;nan;99631.09;4973362;28;20332;-76
2023/07/16 05:18:25;;;;;;;1.73;1.30;;;;;;;20.11;nan;99619.25;4975951;28;20276;-76
2023/07/16 05:20:51;;;;;;;4.50;1.40;;;;;;;20.18;nan;99633.66;4975428;28;20813;-77
2023/07/16 05:23:16;;;;;;;2.07;1.50;;;;;;;20.24;nan;99624.16;4976847;28;20696;-77
2023/07/16 05:25:49;;;;;;;2.23;1.43;;;;;;;20.31;nan;99619.88;4976321;28;20221;-76
2023/07/16 05:28:18;;;;;;;2.10;1.30;;;;;;;20.39;nan;99621.72;4975419;28;20230;-76
2023/07/16 05:30:44;;;;;;;1.97;1.23;;;;;;;20.42;nan;99624.09;4977524;28;20515;-76
2023/07/16 05:33:10;;;;;;;2.70;1.37;;;;;;;20.48;nan;99632.28;4975320;28;20498;-76
2023/07/16 05:35:36;;;;;;;2.27;1.30;;;;;;;20.53;nan;99619.31;4976262;28;21044;-75
2023/07/16 05:38:01;;;;;;;1.33;1.07;;;;;;;20.58;nan;99610.84;4977013;28;20476;-76
2023/07/16 05:40:26;;;;;;;2.00;1.80;;;;;;;20.59;nan;99614.34;4974093;28;20235;-76
2023/07/16 05:42:52;;;;;;;2.53;1.77;;;;;;;20.68;nan;99621.38;4981913;23;20253;-75
2023/07/16 05:45:17;;;;;;;3.30;1.53;;;;;;;20.81;nan;99647.59;4965553;28;20227;-75
2023/07/16 05:47:43;;;;;;;2.50;1.50;;;;;;;21.16;nan;99646.50;4976295;28;20258;-76
2023/07/16 05:50:35;;;;;;;1.73;1.33;;;;;;;21.76;nan;99643.53;4982107;28;20226;-76
2023/07/16 05:53:00;;;;;;;2.00;1.37;;;;;;;22.52;nan;99633.31;4987679;28;20640;-76
2023/07/16 05:55:26;;;;;;;3.70;2.33;;;;;;;23.17;nan;99627.63;4985888;28;20597;-76
2023/07/16 05:58:03;;;;;;;3.93;1.53;;;;;;;23.75;nan;99640.59;4987151;28;20227;-75
2023/07/16 06:00:28;;;;;;;4.93;1.40;;;;;;;24.36;nan;99638.59;4988167;28;20227;-75
2023/07/16 06:02:54;;;;;;;1.70;1.50;;;;;;;24.87;nan;99625.22;4985975;28;20837;-77
2023/07/16 06:05:19;;;;;;;1.33;1.23;;;;;;;25.30;nan;99630.66;4985253;28;20232;-77
2023/07/16 06:07:44;;;;;;;1.60;1.17;;;;;;;25.62;nan;99623.03;4986282;28;20221;-77
2023/07/16 06:10:10;;;;;;;1.73;1.27;;;;;;;25.60;nan;99627.81;4986163;28;20315;-76
2023/07/16 06:12:35;;;;;;;1.20;1.03;;;;;;;25.41;nan;99631.13;4986268;28;20236;-76
2023/07/16 06:15:17;;;;;;;1.77;1.10;;;;;;;25.33;nan;99618.66;4984166;28;20287;-78
2023/07/16 06:17:43;;;;;;;1.60;1.33;;;;;;;25.53;nan;99608.06;4985614;28;20232;-76
2023/07/16 06:20:09;;;;;;;2.50;1.40;;;;;;;25.73;nan;99622.50;4986903;28;21044;-76
2023/07/16 06:22:34;;;;;;;4.10;1.43;;;;;;;25.69;nan;99629.31;4981402;28;20290;-76
2023/07/16 06:25:00;;;;;;;1.47;1.17;;;;;;;25.43;nan;99631.78;4985883;28;20518;-76
2023/07/16 06:27:26;;;;;;;1.60;1.20;;;;;;;24.97;nan;99632.13;4979610;28;20712;-76
2023/07/16 06:29:51;;;;;;;3.83;1.47;;;;;;;24.41;nan;99646.94;4980632;28;20256;-76
2023/07/16 06:32:17;;;;;;;1.53;1.07;;;;;;;23.93;nan;99641.09;4978880;28;20733;-76
2023/07/16 06:34:42;;;;;;;1.30;1.20;;;;;;;23.77;nan;99650.13;4981606;28;20227;-76
2023/07/16 06:37:08;;;;;;;1.50;1.20;;;;;;;23.83;nan;99665.47;4977681;28;20590;-76
2023/07/16 06:39:33;;;;;;;2.20;1.37;;;;;;;24.16;nan;99651.72;4980261;28;20297;-75
2023/07/16 06:41:59;;;;;;;2.93;1.40;;;;;;;24.61;nan;99657.13;4984201;28;20549;-76
2023/07/16 06:44:26;;;;;;;1.43;1.20;;;;;;;24.95;nan;99662.72;4983774;28;20668;-76
2023/07/16 06:46:51;;;;;;;3.40;1.40;;;;;;;25.12;nan;99659.78;4986728;28;21081;-76
2023/07/16 06:49:17;;;;;;;2.60;1.30;;;;;;;25.20;nan;99669.63;4985912;28;20664;-75
2023/07/16 06:51:42;;;;;;;1.97;1.40;;;;;;;25.27;nan;99662.44;4986005;28;20250;-76
2023/07/16 06:54:08;;;;;;;1.90;1.57;;;;;;;25.27;nan;99657.88;4985780;28;20239;-76
2023/07/16 06:56:33;;;;;;;1.93;1.20;;;;;;;25.21;nan;99664.03;4985466;28;20329;-76
2023/07/16 06:58:58;;;;;;;1.97;1.57;;;;;;;25.42;nan;99643.56;4986623;28;20368;-76
2023/07/16 07:01:24;;;;;;;2.10;1.37;;;;;;;25.59;nan;99629.63;4984332;28;20718;-76
2023/07/16 07:03:50;;;;;;;1.67;1.57;;;;;;;25.83;nan;99644.56;4983642;28;20232;-76
2023/07/16 07:06:15;;;;;;;1.70;1.40;;;;;;;25.95;nan;99644.84;4984891;28;20495;-77
2023/07/16 07:08:40;;;;;;;2.13;1.10;;;;;;;25.68;nan;99653.69;4983751;28;20252;-76
2023/07/16 07:11:06;;;;;;;2.40;1.40;;;;;;;25.28;nan;99662.25;4985428;28;20690;-76
2023/07/16 07:13:31;;;;;;;2.03;1.30;;;;;;;24.91;nan;99665.97;4984099;28;20234;-76
2023/07/16 07:15:56;;;;;;;2.67;1.57;;;;;;;24.58;nan;99662.88;4983544;28;20708;-76
2023/07/16 07:18:22;;;;;;;3.37;1.50;;;;;;;24.39;nan;99658.88;4983497;28;20651;-76
2023/07/16 07:20:47;;;;;;;2.03;1.63;;;;;;;24.42;nan;99653.13;4985412;28;20830;-76
2023/07/16 07:23:13;;;;;;;1.37;1.20;;;;;;;24.37;nan;99645.63;4983015;28;20228;-76
2023/07/16 07:25:39;;;;;;;2.33;1.40;;;;;;;24.38;nan;99641.91;4983123;28;20431;-76
2023/07/16 07:28:04;;;;;;;1.87;1.27;;;;;;;24.44;nan;99651.97;4984109;28;20482;-76
2023/07/16 07:30:29;;;;;;;1.87;1.37;;;;;;;24.61;nan;99631.09;4986513;28;20222;-76
2023/07/16 07:32:55;;;;;;;2.20;1.10;;;;;;;24.91;nan;99621.09;4984111;28;20629;-76
2023/07/16 07:35:20;;;;;;;3.73;1.43;;;;;;;25.21;nan;99626.41;4986786;28;20542;-76
2023/07/16 07:37:46;;;;;;;1.70;1.60;;;;;;;25.51;nan;99615.50;4986474;28;20224;-76
2023/07/16 07:40:11;;;;;;;3.20;1.30;;;;;;;25.87;nan;99625.31;4983571;28;20223;-76
2023/07/16 07:42:37;;;;;;;1.87;1.33;;;;;;;26.21;nan;99625.31;4981817;28;20243;-76
2023/07/16 07:45:03;;;;;;;3.60;1.40;;;;;;;26.65;nan;99624.13;4984836;28;20212;-76
2023/07/16 07:47:28;;;;;;;1.93;1.20;;;;;;;26.96;nan;99640.81;4965812;28;20220;-76
2023/07/16 07:49:54;;;;;;;3.00;1.23;;;;;;;26.95;nan;99642.69;4983466;28;20536;-75
2023/07/16 07:52:19;;;;;;;1.43;1.30;;;;;;;26.85;nan;99639.53;4982675;28;20306;-76
2023/07/16 07:54:44;;;;;;;2.07;1.10;;;;;;;26.81;nan;99643.66;4982783;28;20712;-76
2023/07/16 07:57:10;;;;;;;2.60;1.77;;;;;;;26.78;nan;99644.06;4984524;28;20226;-76
2023/07/16 07:59:35;;;;;;;5.07;1.77;;;;;;;26.86;nan;99636.63;4985525;28;20260;-76
2023/07/16 08:02:03;;;;;;;1.40;1.30;;;;;;;27.08;nan;99639.97;4984417;28;20224;-76
2023/07/16 08:04:29;;;;;;;2.43;1.43;;;;;;;27.24;nan;99633.41;4983211;28;20240;-76
2023/07/16 08:06:54;;;;;;;1.87;1.60;;;;;;;27.39;nan;99644.03;4987391;28;20946;-76
2023/07/16 08:09:20;;;;;;;3.50;1.73;;;;;;;27.43;nan;99641.72;4987559;28;20688;-76
2023/07/16 08:11:46;;;;;;;2.30;1.40;;;;;;;27.37;nan;99640.69;4986371;28;20500;-76
2023/07/16 08:14:11;;;;;;;2.87;1.67;;;;;;;27.30;nan;99638.00;4987718;28;20488;-75
2023/07/16 08:16:36;;;;;;;4.50;1.53;;;;;;;27.19;nan;99629.66;4985655;28;20227;-75
2023/07/16 08:19:02;;;;;;;3.90;1.80;;;;;;;27.18;nan;99631.53;4987718;28;20406;-75
2023/07/16 08:21:28;;;;;;;1.90;1.23;;;;;;;27.18;nan;99630.72;4986302;28;20221;-75
2023/07/16 08:23:53;;;;;;;1.67;1.30;;;;;;;27.22;nan;99632.81;4985226;28;20311;-75
2023/07/16 08:26:18;;;;;;;3.27;1.40;;;;;;;27.35;nan;99624.75;4986343;28;20591;-75
2023/07/16 08:28:44;;;;;;;2.30;1.50;;;;;;;27.32;nan;99635.09;4988244;28;20224;-76
2023/07/16 08:31:11;;;;;;;2.50;1.50;;;;;;;27.07;nan;99637.50;4987364;28;20784;-76
2023/07/16 08:33:36;;;;;;;6.30;1.60;;;;;;;26.93;nan;99639.34;4987183;28;20224;-76
2023/07/16 08:36:01;;;;;;;2.90;1.50;;;;;;;26.76;nan;99652.38;4985582;28;20835;-75
2023/07/16 08:38:27;;;;;;;6.07;2.00;;;;;;;26.58;nan;99644.00;4985798;28;20310;-76
2023/07/16 08:40:53;;;;;;;2.27;1.80;;;;;;;26.40;nan;99634.53;4987037;28;20256;-75
2023/07/16 08:43:18;;;;;;;1.37;1.17;;;;;;;26.30;nan;99633.25;4986432;28;20557;-75
2023/07/16 08:45:45;;;;;;;2.53;1.30;;;;;;;26.24;nan;99627.63;4985234;28;20755;-75
2023/07/16 08:48:11;;;;;;;6.20;1.90;;;;;;;26.12;nan;99644.56;4987579;28;20524;-75
2023/07/16 08:50:37;;;;;;;3.40;1.50;;;;;;;26.03;nan;99643.84;4988970;28;21043;-76
2023/07/16 08:53:06;;;;;;;3.47;1.50;;;;;;;25.95;nan;99644.00;4987759;28;20224;-75
2023/07/16 08:55:33;;;;;;;2.70;1.50;;;;;;;25.85;nan;99641.69;4986914;28;20553;-75
2023/07/16 08:57:59;;;;;;;1.80;1.70;;;;;;;25.81;nan;99637.66;4985516;28;20484;-75
2023/07/16 09:00:27;;;;;;;4.13;1.73;;;;;;;25.88;nan;99640.44;4986653;28;20528;-75
2023/07/16 09:02:53;;;;;;;10.27;2.27;;;;;;;25.98;nan;99635.56;4985315;28;20237;-75
2023/07/16 09:05:22;;;;;;;2.80;2.60;;;;;;;25.95;nan;99639.47;4984501;28;20480;-75
2023/07/16 09:07:49;;;;;;;2.10;1.30;;;;;;;25.95;nan;99642.16;4984749;28;20216;-75
2023/07/16 09:10:14;;;;;;;3.83;1.73;;;;;;;25.98;nan;99641.78;4984453;28;20490;-75
2023/07/16 09:12:44;;;;;;;2.50;1.47;;;;;;;26.08;nan;99630.63;4985341;28;20484;-76
2023/07/16 09:15:11;;;;;;;1.43;1.00;;;;;;;26.30;nan;99634.06;4986169;28;20586;-76
2023/07/16 09:17:38;;;;;;;3.60;1.50;;;;;;;26.62;nan;99639.84;4984512;28;20557;-76
2023/07/16 09:20:04;;;;;;;2.17;1.30;;;;;;;26.80;nan;99640.13;4986120;28;20463;-75
2023/07/16 09:22:29;;;;;;;2.70;1.43;;;;;;;27.03;nan;99637.09;4981893;28;20587;-76
2023/07/16 09:24:56;;;;;;;2.60;1.73;;;;;;;27.15;nan;99650.81;4984419;28;20498;-76
2023/07/16 09:27:28;;;;;;;2.70;1.93;;;;;;;27.13;nan;99645.59;4984317;28;20212;-76
2023/07/16 09:29:54;;;;;;;3.00;1.43;;;;;;;27.09;nan;99638.97;4986502;28;20470;-75
2023/07/16 09:32:19;;;;;;;2.70;1.77;;;;;;;27.17;nan;99642.53;4983801;28;20482;-76
2023/07/16 09:34:45;;;;;;;3.93;1.30;;;;;;;27.29;nan;99638.19;4985888;28;20722;-76
2023/07/16 09:37:11;;;;;;;2.80;1.90;;;;;;;27.45;nan;99635.09;4985439;28;20249;-76
2023/07/16 09:39:37;;;;;;;3.77;2.13;;;;;;;27.54;nan;99638.41;4983472;28;20249;-76
2023/07/16 09:42:02;;;;;;;3.50;1.57;;;;;;;27.53;nan;99637.59;4984734;28;20487;-76
2023/07/16 09:44:29;;;;;;;4.43;1.40;;;;;;;27.55;nan;99629.31;4987410;28;20232;-76
2023/07/16 09:46:55;;;;;;;3.27;1.67;;;;;;;27.68;nan;99633.84;4987369;28;20236;-76
2023/07/16 09:49:20;;;;;;;2.83;1.37;;;;;;;27.86;nan;99642.16;4985947;28;20550;-76
2023/07/16 09:51:51;;;;;;;4.33;2.27;;;;;;;27.95;nan;99634.69;4984053;28;20731;-76
2023/07/16 09:54:16;;;;;;;2.70;1.63;;;;;;;28.08;nan;99633.84;4986862;28;20291;-75
2023/07/16 09:57:02;;;;;;;1.33;1.20;;;;;;;28.20;nan;99629.44;4985538;28;20481;-76
2023/07/16 09:59:30;;;;;;;3.67;1.60;;;;;;;28.05;nan;99635.09;4984723;28;20217;-75
2023/07/16 10:01:57;;;;;;;1.90;1.70;;;;;;;27.84;nan;99633.47;4985936;28;20499;-75
2023/07/16 10:04:22;;;;;;;3.17;1.83;;;;;;;27.76;nan;99620.13;4986943;28;20521;-76
2023/07/16 10:06:57;;;;;;;2.20;1.37;;;;;;;27.63;nan;99636.38;4985408;28;21537;-75
2023/07/16 10:09:56;;;;;;;7.13;1.63;;;;;;;27.77;nan;99635.31;4984397;28;20473;-75
2023/07/16 10:12:24;;;;;;;2.30;1.60;;;;;;;27.80;nan;99645.72;4972498;28;21142;-76
2023/07/16 10:14:58;;;;;;;2.40;1.37;;;;;;;27.75;nan;99635.50;4985032;28;20483;-74
2023/07/16 10:17:25;;;;;;;3.67;1.60;;;;;;;27.79;nan;99639.47;4986996;28;20490;-76
2023/07/16 10:19:59;;;;;;;3.67;1.40;;;;;;;27.73;nan;99634.91;4984807;28;20558;-76
2023/07/16 10:22:42;;;;;;;3.73;2.10;;;;;;;27.71;nan;99634.28;4984188;28;20466;-76
2023/07/16 10:25:17;;;;;;;2.97;1.30;;;;;;;27.87;nan;99633.06;4985295;28;20569;-76
2023/07/16 10:27:43;;;;;;;2.53;1.73;;;;;;;28.00;nan;99633.03;4981972;28;20552;-76
2023/07/16 10:30:08;;;;;;;3.33;1.40;;;;;;;28.05;nan;99628.84;4984358;28;20473;-77
2023/07/16 10:32:34;;;;;;;3.47;1.30;;;;;;;28.17;nan;99628.00;4984786;28;20980;-76
2023/07/16 10:35:00;;;;;;;1.90;1.20;;;;;;;28.22;nan;99625.50;4983008;28;20223;-76
2023/07/16 10:37:26;;;;;;;3.60;2.47;;;;;;;28.21;nan;99631.09;4982829;28;20223;-76
2023/07/16 10:39:58;;;;;;;2.50;1.40;;;;;;;28.16;nan;99629.03;4980025;28;20856;-76
2023/07/16 10:42:25;;;;;;;2.80;1.37;;;;;;;28.21;nan;99628.41;4968445;28;20259;-76
2023/07/16 10:44:57;;;;;;;2.30;1.53;;;;;;;28.24;nan;99641.47;4979091;28;21067;-76
2023/07/16 10:47:25;;;;;;;1.70;1.60;;;;;;;28.40;nan;99632.91;4979311;28;20483;-76
2023/07/16 10:49:52;;;;;;;2.33;1.37;;;;;;;28.68;nan;99631.81;4976968;28;20536;-76
2023/07/16 10:52:18;;;;;;;3.57;1.70;;;;;;;28.84;nan;99628.59;4971947;28;20697;-76
2023/07/16 10:54:43;;;;;;;2.20;1.70;;;;;;;28.80;nan;99626.53;4969793;28;20936;-76
2023/07/16 10:57:11;;;;;;;10.20;1.80;;;;;;;28.71;nan;99627.84;4980509;28;20487;-77
2023/07/16 10:59:39;;;;;;;5.80;1.77;;;;;;;28.57;nan;99619.81;4979794;28;20252;-76
2023/07/16 11:02:10;;;;;;;3.17;1.70;;;;;;;28.48;nan;99631.06;4979486;28;20484;-76
2023/07/16 11:04:36;;;;;;;4.37;2.43;;;;;;;28.30;nan;99621.75;4979598;28;20482;-75
2023/07/16 11:07:12;;;;;;;6.80;1.90;;;;;;;28.12;nan;99621.59;4982077;28;20510;-82
2023/07/16 11:09:45;;;;;;;3.27;1.70;;;;;;;28.12;nan;99618.88;4979909;28;20220;-77
2023/07/16 11:12:17;;;;;;;2.00;1.77;;;;;;;28.16;nan;99609.31;4978029;28;20546;-77
2023/07/16 11:14:45;;;;;;;2.47;1.40;;;;;;;28.22;nan;99620.09;4980210;28;21390;-77
2023/07/16 11:17:12;;;;;;;2.97;1.73;;;;;;;28.22;nan;99603.06;4979699;28;20512;-77
2023/07/16 11:19:38;;;;;;;3.13;1.60;;;;;;;28.12;nan;99616.19;4976874;28;20486;-77
2023/07/16 11:22:05;;;;;;;2.57;1.90;;;;;;;28.06;nan;99611.59;4980586;28;20859;-77
2023/07/16 11:24:43;;;;;;;2.87;1.60;;;;;;;27.96;nan;99615.59;4980595;28;20541;-77
2023/07/16 11:27:29;;;;;;;1.80;1.17;;;;;;;27.90;nan;99616.44;4977331;28;21053;-76
2023/07/16 11:29:59;;;;;;;2.83;1.40;;;;;;;27.94;nan;99604.16;4978900;28;20550;-78
2023/07/16 11:32:38;;;;;;;4.93;1.63;;;;;;;27.94;nan;99624.94;4978153;28;20558;-77
2023/07/16 11:35:06;;;;;;;2.63;2.43;;;;;;;27.95;nan;99611.22;4976280;28;20783;-81
2023/07/16 11:37:32;;;;;;;3.33;1.70;;;;;;;28.05;nan;99607.25;4979392;28;20546;-78
2023/07/16 11:40:00;;;;;;;2.50;1.30;;;;;;;28.15;nan;99605.78;4976672;28;20494;-78
2023/07/16 11:42:34;;;;;;;2.47;1.50;;;;;;;28.26;nan;99598.06;4973820;28;20553;-79
2023/07/16 11:45:00;;;;;;;3.80;1.90;;;;;;;28.27;nan;99605.94;4978079;28;21127;-78
2023/07/16 11:47:26;;;;;;;4.20;2.00;;;;;;;28.38;nan;99608.00;4977929;28;20847;-78
2023/07/16 11:49:52;;;;;;;2.20;1.40;;;;;;;28.41;nan;99609.44;4974299;28;21045;-80